Time;durP1;ratioP1;P1;durP2;ratioP2;P2;SDS_P1;SDS_P2;PMS_P1;PMS_P2;Temp;Humidity;BMP_temperature;BMP_pressure;BME280_temperature;BME280_humidity;BME280_pressure;Samples;Min_cycle;Max_cycle;Signal;HPM_P1;HPM_P2
2024/01/03 00:02:50;;;;;;;0.50;0.50;;;13.60;41.30;;;;;;10351262;28;20312;-73
2024/01/03 00:07:55;;;;;;;0.40;0.40;;;13.60;41.20;;;;;;10352115;28;20222;-73
2024/01/03 00:12:59;;;;;;;0.40;0.40;;;13.70;40.90;;;;;;10350590;28;20226;-73
2024/01/03 00:18:04;;;;;;;1.33;0.40;;;13.70;41.10;;;;;;10352610;28;20528;-73
2024/01/03 00:23:15;;;;;;;0.47;0.47;;;13.70;40.90;;;;;;10349160;28;20304;-73
2024/01/03 00:28:21;;;;;;;0.40;0.40;;;13.70;40.60;;;;;;10350673;28;20284;-73
2024/01/03 00:33:24;;;;;;;0.40;0.40;;;13.70;41.00;;;;;;10349253;28;20226;-73
2024/01/03 00:38:41;;;;;;;0.40;0.40;;;13.70;40.90;;;;;;10345804;28;20242;-73
2024/01/03 00:43:45;;;;;;;0.40;0.40;;;13.70;40.00;;;;;;10349563;28;20222;-73
2024/01/03 00:48:48;;;;;;;0.40;0.40;;;13.70;40.70;;;;;;10351638;28;20263;-73
2024/01/03 00:53:53;;;;;;;0.40;0.40;;;13.70;40.90;;;;;;10349203;28;20260;-73
2024/01/03 00:58:57;;;;;;;0.40;0.40;;;13.60;40.50;;;;;;10350571;28;20230;-73
2024/01/03 01:04:00;;;;;;;0.40;0.40;;;13.70;40.90;;;;;;10351519;28;20222;-73
2024/01/03 01:09:05;;;;;;;1.60;0.40;;;13.70;40.60;;;;;;10348229;28;20227;-73
2024/01/03 01:14:08;;;;;;;0.40;0.40;;;13.70;40.30;;;;;;10346617;28;20226;-73
2024/01/03 01:19:11;;;;;;;0.40;0.40;;;13.70;40.40;;;;;;10349581;28;20230;-73
2024/01/03 01:24:16;;;;;;;0.40;0.40;;;13.60;40.30;;;;;;10350228;28;20227;-73
2024/01/03 01:29:20;;;;;;;0.50;0.50;;;13.60;40.30;;;;;;10348935;28;20233;-73
2024/01/03 01:34:23;;;;;;;0.60;0.50;;;13.50;40.30;;;;;;10340790;28;20237;-73
2024/01/03 01:39:27;;;;;;;0.40;0.40;;;13.50;40.30;;;;;;10355471;28;20234;-73
2024/01/03 01:44:31;;;;;;;0.40;0.40;;;13.50;40.00;;;;;;10351786;28;20248;-73
2024/01/03 01:49:34;;;;;;;0.40;0.40;;;13.50;40.20;;;;;;10349059;28;20234;-73
2024/01/03 01:54:39;;;;;;;0.43;0.43;;;13.50;40.10;;;;;;10348826;28;20238;-73
2024/01/03 01:59:43;;;;;;;0.50;0.50;;;13.50;39.80;;;;;;10347863;28;20345;-73
2024/01/03 02:04:46;;;;;;;0.50;0.50;;;13.50;39.80;;;;;;10350833;28;20670;-73
2024/01/03 02:09:51;;;;;;;0.73;0.40;;;13.40;39.80;;;;;;10354757;28;20218;-73
2024/01/03 02:14:54;;;;;;;0.50;0.50;;;13.40;39.60;;;;;;10353228;28;20222;-73
2024/01/03 02:20:00;;;;;;;0.60;0.60;;;13.40;39.70;;;;;;10351353;28;20249;-73
2024/01/03 02:25:10;;;;;;;1.00;0.50;;;13.30;39.70;;;;;;10355635;28;20226;-73
2024/01/03 02:30:15;;;;;;;0.60;0.60;;;13.30;39.60;;;;;;10346792;28;20665;-73
2024/01/03 02:35:18;;;;;;;0.67;0.67;;;13.30;39.70;;;;;;10350196;28;20689;-73
2024/01/03 02:40:23;;;;;;;0.60;0.60;;;13.20;39.90;;;;;;10349580;28;20312;-73
2024/01/03 02:45:26;;;;;;;0.50;0.50;;;13.20;39.70;;;;;;10348651;28;20723;-73
2024/01/03 02:50:29;;;;;;;0.60;0.60;;;13.20;39.90;;;;;;10349941;28;20611;-73
2024/01/03 02:55:34;;;;;;;0.60;0.60;;;13.20;39.90;;;;;;10351187;28;20280;-73
2024/01/03 03:00:39;;;;;;;0.50;0.50;;;13.20;40.00;;;;;;10352401;28;20342;-73
2024/01/03 03:05:42;;;;;;;0.50;0.50;;;13.10;39.80;;;;;;10350267;28;20230;-73
2024/01/03 03:10:47;;;;;;;0.70;0.50;;;13.10;39.90;;;;;;10348778;28;20611;-73
2024/01/03 03:15:50;;;;;;;0.60;0.50;;;13.10;40.00;;;;;;10350807;28;20237;-73
2024/01/03 03:20:53;;;;;;;0.90;0.53;;;13.10;40.20;;;;;;10353638;28;21035;-73
2024/01/03 03:25:58;;;;;;;0.40;0.40;;;13.10;40.20;;;;;;10358036;28;20297;-73
2024/01/03 03:31:02;;;;;;;0.40;0.40;;;13.10;40.20;;;;;;10353510;28;20223;-73
2024/01/03 03:36:12;;;;;;;0.40;0.40;;;13.10;40.40;;;;;;10356397;28;20309;-73
2024/01/03 03:41:19;;;;;;;0.50;0.50;;;13.00;40.60;;;;;;10352934;28;20240;-73
2024/01/03 03:46:23;;;;;;;1.60;0.40;;;13.00;40.60;;;;;;10360211;28;20233;-73
2024/01/03 03:51:26;;;;;;;0.40;0.40;;;13.00;40.80;;;;;;10359324;28;20232;-73
2024/01/03 03:56:31;;;;;;;0.50;0.50;;;13.10;40.90;;;;;;10357259;28;20243;-73
2024/01/03 04:01:34;;;;;;;0.50;0.50;;;13.10;40.90;;;;;;10356965;28;20238;-73
2024/01/03 04:06:42;;;;;;;0.50;0.50;;;13.10;41.10;;;;;;10356705;28;21141;-73
2024/01/03 04:11:47;;;;;;;0.50;0.50;;;13.10;41.00;;;;;;10356598;28;20234;-73
2024/01/03 04:16:50;;;;;;;1.50;0.50;;;13.00;40.80;;;;;;10357060;28;20683;-73
2024/01/03 04:21:53;;;;;;;0.47;0.47;;;13.10;40.90;;;;;;10355490;28;21057;-73
2024/01/03 04:26:58;;;;;;;0.40;0.40;;;13.10;40.80;;;;;;10356221;28;20226;-73
2024/01/03 04:32:02;;;;;;;0.60;0.60;;;13.00;40.60;;;;;;10353536;28;20338;-73
2024/01/03 04:37:05;;;;;;;0.40;0.40;;;13.00;40.60;;;;;;10356117;28;20227;-73
2024/01/03 04:42:09;;;;;;;0.40;0.40;;;13.00;40.60;;;;;;10351882;28;20245;-73
2024/01/03 04:47:13;;;;;;;0.43;0.43;;;13.00;40.60;;;;;;10358432;28;20322;-73
2024/01/03 04:52:16;;;;;;;0.50;0.50;;;13.00;40.50;;;;;;10357343;28;20308;-73
2024/01/03 04:57:21;;;;;;;0.50;0.50;;;13.00;40.60;;;;;;10351429;28;20253;-73
2024/01/03 05:02:24;;;;;;;0.57;0.50;;;12.90;40.50;;;;;;10356013;28;20237;-73
2024/01/03 05:07:27;;;;;;;0.50;0.50;;;12.90;40.60;;;;;;10348307;28;20250;-73
2024/01/03 05:12:32;;;;;;;0.60;0.60;;;12.90;40.70;;;;;;10350202;28;20231;-73
2024/01/03 05:17:35;;;;;;;0.70;0.70;;;12.90;40.50;;;;;;10350601;28;20231;-73
2024/01/03 05:22:38;;;;;;;0.60;0.60;;;13.00;40.70;;;;;;10352808;28;20612;-73
2024/01/03 05:27:42;;;;;;;0.60;0.60;;;13.00;40.60;;;;;;10352906;28;20532;-73
2024/01/03 05:32:46;;;;;;;0.70;0.70;;;13.00;40.40;;;;;;10353875;28;20309;-73
2024/01/03 05:37:49;;;;;;;0.60;0.60;;;13.00;40.30;;;;;;10348928;28;20233;-73
2024/01/03 05:42:54;;;;;;;1.40;0.60;;;13.00;40.20;;;;;;10354214;28;20746;-73
2024/01/03 05:47:57;;;;;;;0.80;0.70;;;12.90;39.90;;;;;;10351541;28;20226;-74
2024/01/03 05:53:00;;;;;;;0.60;0.60;;;12.90;40.20;;;;;;10357246;28;20304;-73
2024/01/03 05:58:05;;;;;;;1.00;0.63;;;12.90;40.10;;;;;;10354186;28;20803;-72
2024/01/03 06:03:08;;;;;;;0.60;0.60;;;12.90;40.00;;;;;;10357968;28;20258;-73
2024/01/03 06:08:12;;;;;;;0.67;0.67;;;12.90;40.10;;;;;;10351799;28;20230;-73
2024/01/03 06:13:17;;;;;;;0.60;0.60;;;12.90;40.10;;;;;;10349651;28;20226;-73
2024/01/03 06:18:21;;;;;;;0.50;0.50;;;12.90;39.90;;;;;;10348786;28;20230;-73
2024/01/03 06:23:25;;;;;;;0.70;0.70;;;12.80;39.90;;;;;;10354623;28;20230;-73
2024/01/03 06:28:29;;;;;;;1.13;0.97;;;12.80;39.80;;;;;;10355061;28;20241;-73
2024/01/03 06:33:32;;;;;;;0.60;0.60;;;12.80;39.80;;;;;;10348310;28;20284;-73
2024/01/03 06:38:36;;;;;;;1.17;0.80;;;12.80;39.90;;;;;;10354136;28;20238;-73
2024/01/03 06:43:40;;;;;;;1.30;0.80;;;12.80;40.00;;;;;;10345807;28;20230;-73
2024/01/03 06:48:43;;;;;;;0.70;0.70;;;12.80;40.00;;;;;;10349750;28;20230;-73
2024/01/03 06:53:47;;;;;;;0.80;0.70;;;12.70;40.00;;;;;;10360131;28;20222;-73
2024/01/03 06:58:52;;;;;;;0.60;0.60;;;12.70;40.00;;;;;;10364656;28;20238;-74
2024/01/03 07:03:56;;;;;;;0.50;0.50;;;12.70;40.10;;;;;;10368164;28;20238;-74
2024/01/03 07:08:59;;;;;;;0.67;0.67;;;12.70;40.00;;;;;;10367750;28;20241;-74
2024/01/03 07:14:05;;;;;;;0.70;0.70;;;12.70;40.10;;;;;;10365044;28;20226;-73
2024/01/03 07:19:08;;;;;;;0.80;0.80;;;12.70;40.10;;;;;;10364500;28;20234;-74
2024/01/03 07:24:11;;;;;;;0.80;0.77;;;12.60;40.20;;;;;;10365312;28;20724;-73
2024/01/03 07:29:16;;;;;;;0.87;0.77;;;12.60;40.20;;;;;;10359618;28;20998;-74
2024/01/03 07:34:19;;;;;;;1.53;0.93;;;12.60;40.20;;;;;;10360816;28;20233;-74
2024/01/03 07:39:22;;;;;;;0.90;0.90;;;12.60;40.10;;;;;;10365827;28;20237;-74
2024/01/03 07:44:33;;;;;;;0.70;0.70;;;12.60;40.10;;;;;;10363371;28;20234;-74
2024/01/03 07:49:37;;;;;;;0.73;0.60;;;12.60;40.10;;;;;;10366167;28;20236;-74
2024/01/03 07:54:40;;;;;;;0.50;0.50;;;12.60;40.30;;;;;;10365130;28;20789;-74
2024/01/03 07:59:45;;;;;;;0.50;0.50;;;12.70;40.50;;;;;;10367066;28;20741;-74
2024/01/03 08:04:48;;;;;;;0.50;0.50;;;12.70;40.40;;;;;;10361675;28;20304;-74
2024/01/03 08:09:51;;;;;;;0.60;0.60;;;12.80;40.50;;;;;;10365804;28;20405;-74
2024/01/03 08:14:56;;;;;;;0.60;0.60;;;12.70;40.50;;;;;;10356238;28;20313;-74
2024/01/03 08:19:59;;;;;;;0.70;0.70;;;12.70;40.50;;;;;;10359285;28;20308;-74
2024/01/03 08:25:03;;;;;;;0.97;0.80;;;12.70;40.60;;;;;;10362579;28;20223;-74
2024/01/03 08:30:09;;;;;;;0.70;0.70;;;12.60;40.70;;;;;;10361105;28;20325;-74
2024/01/03 08:35:12;;;;;;;0.63;0.60;;;12.60;40.80;;;;;;10352506;28;20772;-73
2024/01/03 08:40:15;;;;;;;0.80;0.80;;;12.60;40.90;;;;;;10358221;28;20284;-74
2024/01/03 08:45:20;;;;;;;1.37;0.77;;;12.60;41.20;;;;;;10364240;28;20925;-74
2024/01/03 08:50:23;;;;;;;1.57;1.00;;;12.70;41.20;;;;;;10360049;28;20236;-74
2024/01/03 08:55:26;;;;;;;1.17;0.80;;;12.90;41.30;;;;;;10358318;28;20230;-73
2024/01/03 09:00:31;;;;;;;1.10;1.00;;;13.00;41.00;;;;;;10360506;28;20238;-73
2024/01/03 09:05:34;;;;;;;1.43;1.10;;;13.20;40.90;;;;;;10364752;28;20230;-73
2024/01/03 09:10:37;;;;;;;1.73;0.90;;;13.40;41.00;;;;;;10358512;28;20257;-73
2024/01/03 09:15:42;;;;;;;2.17;0.90;;;13.50;40.50;;;;;;10363370;28;20237;-74
2024/01/03 09:20:45;;;;;;;1.17;0.80;;;13.60;40.20;;;;;;10362502;28;20744;-73
2024/01/03 09:25:49;;;;;;;1.53;0.90;;;13.70;40.00;;;;;;10364099;28;20230;-74
2024/01/03 09:30:54;;;;;;;2.07;0.93;;;13.80;39.80;;;;;;10359274;28;20741;-73
2024/01/03 09:35:57;;;;;;;2.00;1.20;;;13.80;39.50;;;;;;10358363;28;20262;-73
2024/01/03 09:41:02;;;;;;;1.53;1.00;;;13.80;39.60;;;;;;10356610;28;20226;-73
2024/01/03 09:46:07;;;;;;;2.87;1.53;;;13.80;39.30;;;;;;10361180;28;20230;-73
2024/01/03 09:51:10;;;;;;;1.77;1.20;;;13.80;38.90;;;;;;10358366;28;20230;-73
2024/01/03 09:56:13;;;;;;;2.23;1.40;;;13.80;39.10;;;;;;10358929;28;20713;-74
2024/01/03 10:01:18;;;;;;;2.97;1.63;;;13.90;39.10;;;;;;10358872;28;20265;-74
2024/01/03 10:06:21;;;;;;;1.47;1.10;;;13.90;38.80;;;;;;10353744;28;21824;-73
2024/01/03 10:11:25;;;;;;;1.20;1.00;;;13.90;38.80;;;;;;10362651;28;20253;-73
2024/01/03 10:16:30;;;;;;;1.23;0.93;;;14.00;38.60;;;;;;10358191;28;20238;-74
2024/01/03 10:21:33;;;;;;;3.33;1.00;;;14.00;38.10;;;;;;10350761;28;20318;-74
2024/01/03 10:26:37;;;;;;;1.10;0.90;;;14.00;38.10;;;;;;10358469;28;20226;-73
2024/01/03 10:31:42;;;;;;;1.63;1.00;;;14.00;38.00;;;;;;10350658;28;20697;-73
2024/01/03 10:36:45;;;;;;;1.70;0.70;;;14.00;37.40;;;;;;10361814;28;20295;-74
2024/01/03 10:41:50;;;;;;;1.30;0.80;;;14.10;37.70;;;;;;10359523;28;20249;-74
2024/01/03 10:46:56;;;;;;;1.50;1.00;;;14.10;37.50;;;;;;10349262;28;20250;-74
2024/01/03 10:52:03;;;;;;;1.27;0.80;;;14.10;37.00;;;;;;10345321;28;20844;-74
2024/01/03 10:57:06;;;;;;;2.00;0.97;;;14.20;36.70;;;;;;10351704;28;20230;-74
2024/01/03 11:02:23;;;;;;;1.27;0.90;;;14.20;37.10;;;;;;10345723;28;20230;-74
2024/01/03 11:07:33;;;;;;;1.90;1.10;;;14.30;35.40;;;;;;10350255;28;20668;-74
2024/01/03 11:12:36;;;;;;;1.47;0.90;;;14.40;36.10;;;;;;10356072;28;20284;-74
2024/01/03 11:17:41;;;;;;;1.00;0.90;;;14.40;36.40;;;;;;10346333;28;20659;-74
2024/01/03 11:22:58;;;;;;;2.37;1.10;;;14.60;36.20;;;;;;10343593;28;20227;-74
2024/01/03 11:28:31;;;;;;;1.13;0.90;;;14.60;35.70;;;;;;10350750;28;20308;-75
2024/01/03 11:33:41;;;;;;;1.80;0.80;;;14.70;35.30;;;;;;10351743;28;20309;-74
2024/01/03 11:38:46;;;;;;;1.07;0.90;;;14.70;35.00;;;;;;10350967;28;20608;-74
2024/01/03 11:43:49;;;;;;;1.40;0.83;;;14.70;36.00;;;;;;10356727;28;20245;-75
2024/01/03 11:49:07;;;;;;;1.30;0.87;;;14.70;36.10;;;;;;10357220;28;20309;-74
2024/01/03 11:54:10;;;;;;;2.27;0.90;;;14.60;36.20;;;;;;10351913;28;20225;-73
2024/01/03 11:59:14;;;;;;;0.83;0.83;;;14.50;36.50;;;;;;10352604;28;20321;-74
2024/01/03 12:04:18;;;;;;;2.37;0.97;;;14.50;36.60;;;;;;10353351;28;20282;-74
2024/01/03 12:09:22;;;;;;;1.53;0.77;;;14.40;36.10;;;;;;10357897;28;20327;-76
2024/01/03 12:14:25;;;;;;;1.33;0.93;;;14.40;36.40;;;;;;10355599;28;20250;-76
2024/01/03 12:19:31;;;;;;;5.70;2.57;;;14.50;36.00;;;;;;10358736;28;20238;-74
2024/01/03 12:24:38;;;;;;;2.57;1.50;;;14.50;35.70;;;;;;10361097;28;20234;-74
2024/01/03 12:29:42;;;;;;;2.50;1.37;;;14.60;34.80;;;;;;10358138;28;20265;-74
2024/01/03 12:34:47;;;;;;;2.60;1.90;;;14.60;35.80;;;;;;10360768;28;20234;-74
2024/01/03 12:39:53;;;;;;;2.00;1.70;;;14.60;35.00;;;;;;10340590;28;20227;-75
2024/01/03 12:44:56;;;;;;;2.13;1.40;;;14.60;35.50;;;;;;10357990;28;20223;-75
2024/01/03 12:50:01;;;;;;;1.73;1.10;;;14.70;35.50;;;;;;10356754;28;20716;-75
2024/01/03 12:55:06;;;;;;;1.53;0.80;;;14.70;35.20;;;;;;10351160;28;20242;-75
2024/01/03 13:00:10;;;;;;;2.10;0.90;;;14.70;35.20;;;;;;10355556;28;20792;-74
2024/01/03 13:05:15;;;;;;;1.23;0.93;;;14.80;34.70;;;;;;10353973;28;20222;-74
2024/01/03 13:10:19;;;;;;;1.20;1.07;;;14.80;34.50;;;;;;10354228;28;20230;-74
2024/01/03 13:15:22;;;;;;;2.67;1.13;;;14.90;34.80;;;;;;10352313;28;20265;-74
2024/01/03 13:20:26;;;;;;;2.17;1.00;;;14.90;35.40;;;;;;10354885;28;20231;-74
2024/01/03 13:25:30;;;;;;;1.87;1.00;;;15.00;34.30;;;;;;10354126;28;20608;-74
2024/01/03 13:30:33;;;;;;;0.83;0.80;;;15.10;34.40;;;;;;10353605;28;20242;-74
2024/01/03 13:35:38;;;;;;;2.87;1.00;;;15.10;33.80;;;;;;10353835;28;20770;-74
2024/01/03 13:40:43;;;;;;;2.67;1.00;;;15.20;33.70;;;;;;10354989;28;20284;-74
2024/01/03 13:45:48;;;;;;;2.17;0.90;;;15.10;34.00;;;;;;10354495;28;20301;-74
2024/01/03 13:50:53;;;;;;;1.77;0.80;;;15.00;34.20;;;;;;10347745;28;20234;-74
2024/01/03 13:55:59;;;;;;;1.53;0.80;;;14.90;34.50;;;;;;10353727;28;20227;-74
2024/01/03 14:01:02;;;;;;;0.60;0.60;;;14.80;35.10;;;;;;10348034;28;20229;-74
2024/01/03 14:06:09;;;;;;;1.77;1.10;;;14.60;35.20;;;;;;10349415;28;20222;-74
2024/01/03 14:11:12;;;;;;;1.20;1.00;;;14.50;35.30;;;;;;10348671;28;20241;-74
2024/01/03 14:16:15;;;;;;;2.77;1.03;;;14.50;35.50;;;;;;10345435;28;20258;-74
2024/01/03 14:21:20;;;;;;;0.90;0.90;;;14.40;35.40;;;;;;10342026;28;20222;-74
2024/01/03 14:26:23;;;;;;;1.07;0.90;;;14.40;35.50;;;;;;10345552;28;20659;-74
2024/01/03 14:31:27;;;;;;;1.67;0.90;;;14.30;35.60;;;;;;10347731;28;20234;-74
2024/01/03 14:36:31;;;;;;;1.33;1.07;;;14.20;35.40;;;;;;10353175;28;20254;-74
2024/01/03 14:41:35;;;;;;;1.07;0.80;;;14.20;35.30;;;;;;10349768;28;20292;-74
2024/01/03 14:46:38;;;;;;;1.83;0.93;;;14.20;35.50;;;;;;10352118;28;20237;-74
2024/01/03 14:51:43;;;;;;;1.70;0.80;;;14.20;35.50;;;;;;10354265;28;20281;-74
2024/01/03 14:56:46;;;;;;;1.33;1.07;;;14.20;34.80;;;;;;10354306;28;20311;-74
2024/01/03 15:01:50;;;;;;;1.23;0.93;;;14.20;35.00;;;;;;10348823;28;20349;-74
2024/01/03 15:06:59;;;;;;;1.03;0.90;;;14.30;35.00;;;;;;10342019;28;20791;-74
2024/01/03 15:12:02;;;;;;;0.80;0.80;;;14.40;34.10;;;;;;10351293;28;20254;-74
2024/01/03 15:17:06;;;;;;;0.77;0.77;;;14.40;34.80;;;;;;10356876;28;20230;-74
2024/01/03 15:22:15;;;;;;;0.80;0.80;;;14.40;34.70;;;;;;10355900;28;20729;-74
2024/01/03 15:27:18;;;;;;;1.50;0.90;;;14.50;34.30;;;;;;10354864;28;20277;-76
2024/01/03 15:32:21;;;;;;;1.60;1.17;;;14.50;34.60;;;;;;10357362;28;25416;-74
2024/01/03 15:37:26;;;;;;;1.83;0.90;;;14.50;34.60;;;;;;10359590;28;20603;-76
2024/01/03 15:42:29;;;;;;;1.13;1.00;;;14.50;34.30;;;;;;10359256;28;20230;-76
2024/01/03 15:47:32;;;;;;;1.20;1.00;;;14.50;34.50;;;;;;10361416;28;20705;-74
2024/01/03 15:52:37;;;;;;;1.20;1.00;;;14.40;34.30;;;;;;10364978;28;20234;-73
2024/01/03 15:57:45;;;;;;;1.63;1.00;;;14.40;34.00;;;;;;10365021;28;20234;-74
2024/01/03 16:02:49;;;;;;;1.60;1.10;;;14.40;34.30;;;;;;10364510;28;20234;-73
2024/01/03 16:07:53;;;;;;;1.60;1.20;;;14.30;34.20;;;;;;10363713;28;20235;-73
2024/01/03 16:12:56;;;;;;;1.50;1.30;;;14.30;34.60;;;;;;10360809;28;20313;-73
2024/01/03 16:18:01;;;;;;;1.80;1.03;;;14.30;34.80;;;;;;10365040;28;20335;-73
2024/01/03 16:23:06;;;;;;;1.00;1.00;;;14.20;34.90;;;;;;10363971;28;20224;-73
2024/01/03 16:28:09;;;;;;;1.13;0.97;;;14.20;34.60;;;;;;10363260;28;20226;-73
2024/01/03 16:33:13;;;;;;;2.47;1.13;;;14.20;34.90;;;;;;10362406;28;20215;-73
2024/01/03 16:38:23;;;;;;;1.17;1.00;;;14.10;34.70;;;;;;10360419;28;20242;-73
2024/01/03 16:43:27;;;;;;;1.63;0.93;;;14.10;34.70;;;;;;10357982;28;20230;-73
2024/01/03 16:48:30;;;;;;;1.77;0.90;;;14.10;34.80;;;;;;10352525;28;20669;-73
2024/01/03 16:53:35;;;;;;;1.20;0.90;;;14.10;34.90;;;;;;10345237;28;20931;-73
2024/01/03 16:58:38;;;;;;;2.27;1.10;;;14.10;34.80;;;;;;10354537;28;20245;-73
2024/01/03 17:03:41;;;;;;;0.97;0.90;;;14.20;35.00;;;;;;10349834;28;20239;-73
2024/01/03 17:08:46;;;;;;;1.00;0.80;;;14.20;34.90;;;;;;10352833;28;20249;-73
2024/01/03 17:13:49;;;;;;;1.23;1.13;;;14.20;34.70;;;;;;10352513;28;20277;-73
2024/01/03 17:18:54;;;;;;;1.60;1.13;;;14.20;34.90;;;;;;10351862;28;20238;-73
2024/01/03 17:23:59;;;;;;;2.47;1.97;;;14.20;34.80;;;;;;10349281;28;20234;-73
2024/01/03 17:29:05;;;;;;;2.70;1.90;;;14.20;34.60;;;;;;10342172;28;20229;-73
2024/01/03 17:34:09;;;;;;;2.00;1.50;;;14.10;34.60;;;;;;10356103;28;20231;-73
2024/01/03 17:39:14;;;;;;;1.40;1.30;;;14.10;34.70;;;;;;10350988;28;20316;-73
2024/01/03 17:44:17;;;;;;;1.93;1.60;;;14.10;34.50;;;;;;10354832;28;20223;-73
2024/01/03 17:49:21;;;;;;;2.30;1.80;;;14.00;34.60;;;;;;10353378;28;20250;-73
2024/01/03 17:54:26;;;;;;;2.17;1.80;;;14.00;34.70;;;;;;10349569;28;20325;-73
2024/01/03 17:59:29;;;;;;;2.50;1.77;;;14.00;34.60;;;;;;10352303;28;20250;-73
2024/01/03 18:04:35;;;;;;;1.60;1.43;;;13.90;34.60;;;;;;10349741;28;20245;-73
2024/01/03 18:09:40;;;;;;;1.30;1.20;;;13.90;34.50;;;;;;10348285;28;20233;-73
2024/01/03 18:14:43;;;;;;;1.40;1.00;;;13.90;34.20;;;;;;10353662;28;20239;-73
2024/01/03 18:19:47;;;;;;;1.70;0.80;;;13.90;34.30;;;;;;10346432;28;20727;-73
2024/01/03 18:24:52;;;;;;;1.30;1.10;;;13.90;34.00;;;;;;10341565;28;20712;-73
2024/01/03 18:29:55;;;;;;;2.10;1.90;;;13.90;33.70;;;;;;10344045;28;20317;-73
2024/01/03 18:34:58;;;;;;;2.67;1.40;;;14.00;33.90;;;;;;10340111;28;20255;-73
2024/01/03 18:40:07;;;;;;;1.40;1.30;;;14.10;33.90;;;;;;10344927;28;20289;-73
2024/01/03 18:45:10;;;;;;;1.00;1.00;;;14.10;33.20;;;;;;10340155;28;20288;-73
2024/01/03 18:50:13;;;;;;;1.20;1.10;;;14.20;33.50;;;;;;10344416;28;20237;-73
2024/01/03 18:55:19;;;;;;;1.30;1.20;;;14.20;33.20;;;;;;10353145;28;20230;-73
2024/01/03 19:00:24;;;;;;;1.83;1.10;;;14.30;32.90;;;;;;10352194;28;20234;-74
2024/01/03 19:05:28;;;;;;;1.57;0.90;;;14.30;33.10;;;;;;10350301;28;20235;-73
2024/01/03 19:10:34;;;;;;;1.13;1.00;;;14.30;32.90;;;;;;10361486;28;20234;-75
2024/01/03 19:15:37;;;;;;;1.50;0.90;;;14.30;32.80;;;;;;10363359;28;20261;-74
2024/01/03 19:20:40;;;;;;;1.70;1.00;;;14.30;33.00;;;;;;10367277;28;20457;-74
2024/01/03 19:25:45;;;;;;;1.63;0.90;;;14.30;32.30;;;;;;10367647;28;20317;-74
2024/01/03 19:30:49;;;;;;;1.10;1.00;;;14.30;32.90;;;;;;10362683;28;20238;-74
2024/01/03 19:35:52;;;;;;;1.00;0.90;;;14.30;33.00;;;;;;10365462;28;20233;-74
2024/01/03 19:40:56;;;;;;;2.13;1.00;;;14.20;32.90;;;;;;10365363;28;20689;-74
2024/01/03 19:46:00;;;;;;;1.30;0.87;;;14.20;32.40;;;;;;10357754;28;20313;-74
2024/01/03 19:51:04;;;;;;;0.97;0.83;;;14.20;32.70;;;;;;10367079;28;20239;-74
2024/01/03 19:56:21;;;;;;;0.90;0.80;;;14.30;32.70;;;;;;10362260;28;20320;-74
2024/01/03 20:01:24;;;;;;;1.57;0.90;;;14.40;33.10;;;;;;10359104;28;20663;-74
2024/01/03 20:06:28;;;;;;;1.03;0.70;;;14.30;33.30;;;;;;10363911;28;20317;-74
2024/01/03 20:11:32;;;;;;;1.80;0.90;;;14.10;33.50;;;;;;10358714;28;20321;-74
2024/01/03 20:16:39;;;;;;;0.50;0.50;;;13.90;33.50;;;;;;10356673;28;20261;-75
2024/01/03 20:21:44;;;;;;;0.60;0.60;;;13.70;33.40;;;;;;10355714;28;20316;-74
2024/01/03 20:26:48;;;;;;;0.57;0.57;;;13.70;33.70;;;;;;10357039;28;20226;-74
2024/01/03 20:31:52;;;;;;;0.60;0.60;;;13.50;33.80;;;;;;10314497;28;20796;-74
2024/01/03 20:36:56;;;;;;;0.60;0.60;;;13.40;33.80;;;;;;10352315;28;20309;-74
2024/01/03 20:42:02;;;;;;;0.60;0.60;;;13.30;33.90;;;;;;10364148;28;20291;-74
2024/01/03 20:47:05;;;;;;;0.70;0.60;;;13.30;34.00;;;;;;10352514;28;20235;-74
2024/01/03 20:52:09;;;;;;;1.50;1.00;;;13.20;34.10;;;;;;10359770;28;20233;-74
2024/01/03 20:57:14;;;;;;;1.37;1.27;;;13.10;34.20;;;;;;10363092;28;20300;-74
2024/01/03 21:02:17;;;;;;;1.63;1.20;;;13.00;34.30;;;;;;10364349;28;20227;-74
2024/01/03 21:07:20;;;;;;;1.03;0.90;;;12.90;34.50;;;;;;10352858;28;20316;-74
2024/01/03 21:12:25;;;;;;;0.90;0.90;;;12.90;34.60;;;;;;10361624;28;20261;-74
2024/01/03 21:17:28;;;;;;;0.70;0.70;;;12.90;34.70;;;;;;10364746;28;20662;-74
2024/01/03 21:22:35;;;;;;;0.73;0.70;;;12.80;34.80;;;;;;10357728;28;20230;-74
2024/01/03 21:27:40;;;;;;;0.60;0.60;;;12.70;34.80;;;;;;10364470;28;20609;-74
2024/01/03 21:32:52;;;;;;;1.80;1.00;;;12.70;35.00;;;;;;10362447;28;20230;-74
2024/01/03 21:37:56;;;;;;;0.63;0.63;;;12.70;35.00;;;;;;10362281;28;20253;-74
2024/01/03 21:43:00;;;;;;;0.50;0.50;;;12.70;35.00;;;;;;10361685;28;20230;-74
2024/01/03 21:48:04;;;;;;;0.60;0.60;;;12.70;35.90;;;;;;10355016;28;20222;-74
2024/01/03 21:53:07;;;;;;;0.73;0.73;;;12.70;35.10;;;;;;10354550;28;20302;-74
2024/01/03 21:58:12;;;;;;;0.67;0.60;;;12.60;35.00;;;;;;10345194;28;20226;-74
2024/01/03 22:03:15;;;;;;;0.70;0.70;;;12.60;35.00;;;;;;10345220;28;20246;-74
2024/01/03 22:08:18;;;;;;;1.67;0.70;;;12.70;35.10;;;;;;10344710;28;20227;-74
2024/01/03 22:13:23;;;;;;;0.60;0.60;;;12.70;35.10;;;;;;10348930;28;20704;-74
2024/01/03 22:18:27;;;;;;;0.87;0.70;;;12.70;35.10;;;;;;10344185;28;20250;-74
2024/01/03 22:23:30;;;;;;;1.73;1.20;;;12.70;35.10;;;;;;10346954;28;20238;-74
2024/01/03 22:28:35;;;;;;;1.57;1.00;;;12.70;35.10;;;;;;10350231;28;20287;-74
2024/01/03 22:33:38;;;;;;;1.47;1.00;;;12.80;35.20;;;;;;10350770;28;20300;-74
2024/01/03 22:38:43;;;;;;;2.30;1.40;;;12.80;35.10;;;;;;10348135;28;20230;-75
2024/01/03 22:43:48;;;;;;;2.07;1.13;;;12.70;35.20;;;;;;10342044;28;20749;-75
2024/01/03 22:48:51;;;;;;;1.57;1.00;;;12.70;35.30;;;;;;10347196;28;20665;-74
2024/01/03 22:53:54;;;;;;;1.43;1.10;;;12.70;35.30;;;;;;10346023;28;20737;-74
2024/01/03 22:58:59;;;;;;;1.50;0.93;;;12.70;35.20;;;;;;10343819;28;20600;-74
2024/01/03 23:04:03;;;;;;;0.93;0.87;;;12.60;35.30;;;;;;10341388;28;20302;-74
2024/01/03 23:09:06;;;;;;;1.23;0.70;;;12.60;35.40;;;;;;10345927;28;20237;-75
2024/01/03 23:14:11;;;;;;;0.70;0.60;;;12.60;35.50;;;;;;10351922;28;20227;-74
2024/01/03 23:19:14;;;;;;;2.37;0.80;;;12.60;35.50;;;;;;10348236;28;20222;-74
2024/01/03 23:24:18;;;;;;;1.13;0.80;;;12.60;35.40;;;;;;10345768;28;20233;-74
2024/01/03 23:29:22;;;;;;;1.00;0.70;;;12.60;35.40;;;;;;10347705;28;20249;-74
2024/01/03 23:34:26;;;;;;;1.07;0.60;;;12.60;35.30;;;;;;10343203;28;20309;-75
2024/01/03 23:39:30;;;;;;;2.10;0.70;;;12.70;35.10;;;;;;10354750;28;20356;-75
2024/01/03 23:44:34;;;;;;;0.60;0.60;;;12.60;35.10;;;;;;10353138;28;20234;-75
2024/01/03 23:49:41;;;;;;;0.73;0.70;;;12.60;35.10;;;;;;10350245;28;20320;-74
2024/01/03 23:54:44;;;;;;;0.67;0.60;;;12.60;35.10;;;;;;10358783;28;20586;-74
2024/01/03 23:59:49;;;;;;;0.80;0.60;;;12.60;35.00;;;;;;10349435;28;20310;-74
